Time;durP1;ratioP1;P1;durP2;ratioP2;P2;SDS_P1;SDS_P2;PMS_P1;PMS_P2;Temp;Humidity;BMP_temperature;BMP_pressure;BME280_temperature;BME280_humidity;BME280_pressure;Samples;Min_cycle;Max_cycle;Signal;HPM_P1;HPM_P2
2023/10/12 00:02:27;;;;;;;12.43;4.43;;;19.10;99.90;;;18.91;100.00;100158.34;4916731;29;20068;-79
2023/10/12 00:04:59;;;;;;;13.20;4.05;;;19.10;99.90;;;18.95;100.00;100153.06;4915121;29;20048;-80
2023/10/12 00:07:36;;;;;;;10.02;4.45;;;19.10;99.90;;;18.87;100.00;100140.69;4917790;29;20092;-80
2023/10/12 00:12:44;;;;;;;11.37;4.70;;;19.00;99.90;;;18.77;100.00;100143.50;4920463;29;20032;-81
2023/10/12 00:15:22;;;;;;;11.48;4.40;;;18.90;99.90;;;18.62;100.00;100130.59;4921528;29;20400;-81
2023/10/12 00:18:10;;;;;;;9.55;4.18;;;18.90;99.90;;;18.67;100.00;100128.63;4915231;29;20345;-81
2023/10/12 00:20:37;;;;;;;9.77;4.00;;;18.90;99.90;;;18.64;100.00;100131.94;4915251;29;20063;-81
2023/10/12 00:23:14;;;;;;;12.90;4.28;;;18.80;99.90;;;18.61;100.00;100118.72;4914785;29;20095;-79
2023/10/12 00:25:54;;;;;;;9.98;3.95;;;18.80;99.90;;;18.54;100.00;100110.72;4919878;29;20036;-80
2023/10/12 00:28:28;;;;;;;12.43;5.22;;;18.80;99.90;;;18.57;100.00;100128.69;4922594;29;20032;-80
2023/10/12 00:30:57;;;;;;;12.75;4.43;;;18.70;99.90;;;18.53;100.00;100120.13;4928035;29;20043;-79
2023/10/12 00:33:24;;;;;;;12.50;4.47;;;18.70;99.90;;;18.47;100.00;100115.75;4923656;29;20047;-80
2023/10/12 00:35:57;;;;;;;10.07;4.72;;;18.70;99.90;;;18.49;100.00;100124.56;4918498;29;20385;-79
2023/10/12 00:38:28;;;;;;;10.82;3.97;;;18.70;99.90;;;18.46;100.00;100114.09;4924729;29;20039;-80
2023/10/12 00:40:58;;;;;;;12.68;4.20;;;18.70;99.90;;;18.53;100.00;100124.84;4921285;29;20063;-80
2023/10/12 00:43:32;;;;;;;7.85;3.83;;;18.70;99.90;;;18.48;100.00;100128.44;4922595;29;20040;-81
2023/10/12 00:46:09;;;;;;;13.70;4.75;;;18.60;99.90;;;18.38;100.00;100145.06;4918414;29;20062;-80
2023/10/12 00:48:39;;;;;;;10.40;4.45;;;18.60;99.90;;;18.36;100.00;100139.00;4918955;29;20178;-80
2023/10/12 00:51:11;;;;;;;15.93;5.18;;;18.50;99.90;;;18.22;100.00;100147.84;4921075;29;20029;-81
2023/10/12 00:53:38;;;;;;;9.80;4.20;;;18.50;99.90;;;18.14;100.00;100147.59;4918587;29;20092;-80
2023/10/12 00:56:05;;;;;;;11.85;4.75;;;18.40;99.90;;;18.02;100.00;100153.41;4918626;29;20750;-80
2023/10/12 00:58:35;;;;;;;10.18;5.07;;;18.20;99.90;;;17.90;100.00;100146.25;4918464;29;20051;-80
2023/10/12 01:01:04;;;;;;;15.90;5.20;;;18.10;99.90;;;17.67;100.00;100126.41;4928567;29;20480;-80
2023/10/12 01:08:42;;;;;;;10.77;5.03;;;;;;;17.24;100.00;100123.13;4920615;29;20515;-80
2023/10/12 01:11:20;;;;;;;13.25;5.47;;;17.50;99.90;;;17.11;100.00;100121.72;4934863;29;20050;-80
2023/10/12 01:16:41;;;;;;;14.32;5.05;;;17.10;99.90;;;16.96;100.00;100125.22;4920618;29;20118;-80
2023/10/12 01:19:07;;;;;;;10.35;5.05;;;17.10;99.90;;;16.97;100.00;100132.38;4927219;29;20631;-80
2023/10/12 01:21:37;;;;;;;15.10;5.45;;;17.00;99.90;;;16.93;100.00;100118.34;4918077;29;20044;-80
2023/10/12 01:24:12;;;;;;;14.65;4.93;;;17.00;99.90;;;16.90;100.00;100135.44;4937260;29;20074;-81
2023/10/12 01:26:40;;;;;;;12.00;5.32;;;17.00;99.90;;;16.89;100.00;100132.94;4925763;29;20039;-80
2023/10/12 01:29:19;;;;;;;13.73;5.75;;;17.00;99.90;;;16.91;100.00;100141.75;4935977;29;20090;-81
2023/10/12 01:34:36;;;;;;;12.35;5.95;;;16.90;99.90;;;16.73;100.00;100137.56;4921471;29;20044;-80
2023/10/12 01:37:55;;;;;;;17.33;6.03;;;16.80;99.90;;;16.57;100.00;100123.72;4919586;29;20051;-81
2023/10/12 01:40:12;;;;;;;12.13;6.22;;;16.70;99.90;;;16.34;100.00;100122.28;4921038;29;20424;-81
2023/10/12 01:45:17;;;;;;;13.73;5.93;;;16.50;99.90;;;16.27;100.00;100105.19;4929854;29;20039;-79
2023/10/12 01:47:44;;;;;;;15.23;5.95;;;16.50;99.90;;;16.49;100.00;100127.03;4925221;29;20050;-81
2023/10/12 01:50:11;;;;;;;14.15;6.43;;;16.70;99.90;;;16.33;100.00;100102.19;4920644;29;20361;-81
2023/10/12 01:52:37;;;;;;;13.38;6.25;;;16.60;99.90;;;16.15;100.00;100113.66;4917963;29;20048;-81
2023/10/12 01:55:16;;;;;;;14.63;7.10;;;16.50;99.90;;;16.06;100.00;100107.84;4934744;29;20028;-81
2023/10/12 01:57:52;;;;;;;13.40;7.18;;;16.40;99.90;;;15.84;100.00;100092.25;4917904;29;20032;-82
2023/10/12 02:00:24;;;;;;;15.15;7.60;;;16.20;99.90;;;15.56;100.00;100061.28;4928191;29;20028;-82
2023/10/12 02:03:00;;;;;;;13.95;7.80;;;16.10;99.90;;;15.49;100.00;100031.28;4918020;29;20028;-82
2023/10/12 02:05:36;;;;;;;17.50;9.00;;;15.90;99.90;;;15.26;100.00;99988.53;4921979;29;20039;-80
2023/10/12 02:08:05;;;;;;;17.70;9.15;;;15.80;99.90;;;15.30;100.00;99945.69;4934681;29;20079;-82
2023/10/12 02:10:43;;;;;;;18.35;10.35;;;15.70;99.90;;;15.22;100.00;99918.72;4930485;29;20052;-81
2023/10/12 02:13:10;;;;;;;17.10;9.95;;;15.60;99.90;;;15.19;100.00;99881.63;4920324;29;20047;-83
2023/10/12 02:15:38;;;;;;;19.35;10.57;;;15.50;99.90;;;15.08;100.00;99853.25;4913389;29;20159;-81
2023/10/12 02:18:12;;;;;;;;;;;15.50;99.90;;;15.06;100.00;99819.75;4924684;29;20436;-81
2023/10/12 02:20:48;;;;;;;21.33;11.23;;;15.40;99.90;;;15.07;100.00;99787.63;4939292;29;20013;-81
2023/10/12 02:23:13;;;;;;;20.38;11.93;;;15.30;99.90;;;15.01;100.00;99756.56;4917915;29;20036;-80
2023/10/12 02:25:50;;;;;;;19.55;11.48;;;15.30;99.90;;;15.00;100.00;99756.84;4937187;29;20386;-80
2023/10/12 02:28:22;;;;;;;23.15;11.98;;;15.30;99.90;;;14.99;100.00;99750.50;4917663;29;20044;-79
2023/10/12 02:30:54;;;;;;;18.90;11.75;;;15.20;99.90;;;14.95;100.00;99746.66;4923425;29;20424;-81
2023/10/12 02:33:27;;;;;;;23.45;12.02;;;15.20;99.90;;;14.90;100.00;99725.47;4909102;29;20035;-80
2023/10/12 02:35:54;;;;;;;17.92;11.30;;;15.20;99.90;;;14.88;100.00;99729.59;4922480;29;20136;-82
2023/10/12 02:38:21;;;;;;;20.52;12.05;;;15.10;99.90;;;14.79;100.00;99716.34;4917074;29;20365;-81
2023/10/12 02:40:53;;;;;;;16.73;11.13;;;15.10;99.90;;;14.81;100.00;99754.53;4923129;29;20070;-80
2023/10/12 02:43:26;;;;;;;19.83;10.95;;;15.10;99.90;;;14.76;100.00;99774.56;4917222;29;20040;-79
2023/10/12 02:45:53;;;;;;;18.92;11.60;;;15.10;99.90;;;14.72;100.00;99767.94;4922450;29;20031;-80
2023/10/12 02:48:23;;;;;;;18.42;11.18;;;15.00;99.90;;;14.68;100.00;99759.38;4916749;29;20036;-81
2023/10/12 02:50:58;;;;;;;17.88;10.95;;;14.90;99.90;;;14.63;100.00;99759.34;4938000;29;20036;-81
2023/10/12 02:53:30;;;;;;;19.23;11.77;;;14.90;99.90;;;14.62;100.00;99745.91;4915485;29;20066;-79
2023/10/12 02:56:00;;;;;;;21.92;12.35;;;14.90;99.90;;;14.56;100.00;99746.94;4920248;29;20071;-79
2023/10/12 02:58:27;;;;;;;23.55;12.10;;;14.80;99.90;;;14.53;100.00;99729.13;4934589;29;20051;-79
2023/10/12 03:00:56;;;;;;;22.67;13.05;;;14.80;99.90;;;14.41;100.00;99729.31;4925743;29;20036;-80
2023/10/12 03:03:36;;;;;;;21.52;12.00;;;14.70;99.90;;;14.42;100.00;99735.63;4919583;29;20103;-81
2023/10/12 03:06:07;;;;;;;20.13;12.48;;;14.70;99.90;;;14.23;100.00;99728.66;4920721;29;20047;-80
2023/10/12 03:08:46;;;;;;;21.45;12.73;;;14.70;99.90;;;14.32;100.00;99736.38;4918918;29;20079;-81
2023/10/12 03:11:20;;;;;;;23.58;12.85;;;14.60;99.90;;;14.22;100.00;99717.94;4921323;29;20038;-82
2023/10/12 03:13:57;;;;;;;20.70;11.93;;;14.60;99.90;;;14.20;100.00;99731.91;4923204;29;20110;-80
2023/10/12 03:16:24;;;;;;;18.03;11.30;;;14.50;99.90;;;14.14;100.00;99716.53;4919367;29;20036;-81
2023/10/12 03:19:24;;;;;;;26.15;13.48;;;14.60;99.90;;;14.11;100.00;99719.78;4926298;29;20035;-84
2023/10/12 03:21:46;;;;;;;24.33;14.23;;;14.50;99.90;;;14.13;100.00;99720.34;4915558;29;20488;-81
2023/10/12 03:24:14;;;;;;;24.17;12.90;;;14.50;99.90;;;14.15;100.00;99718.16;4936277;29;20028;-82
2023/10/12 03:26:47;;;;;;;24.67;13.35;;;14.40;99.90;;;14.08;100.00;99706.59;4924309;29;20062;-81
2023/10/12 03:35:15;;;;;;;25.55;14.77;;;14.40;99.90;;;14.04;100.00;99678.88;4923115;29;20074;-82
2023/10/12 03:37:14;;;;;;;27.67;14.32;;;14.40;99.90;;;14.03;100.00;99676.38;4932262;29;20052;-83
2023/10/12 03:39:59;;;;;;;23.58;14.27;;;14.30;99.90;;;14.05;100.00;99675.03;4921556;29;20039;-82
2023/10/12 03:45:08;;;;;;;24.05;15.02;;;14.30;99.90;;;13.97;100.00;99674.69;4932403;29;20054;-81
2023/10/12 03:48:03;;;;;;;24.30;14.57;;;14.30;99.90;;;13.94;100.00;99660.44;4921654;29;20043;-82
2023/10/12 03:50:51;;;;;;;25.25;13.35;;;14.20;99.90;;;13.92;100.00;99664.50;4905644;29;20103;-81
2023/10/12 03:53:26;;;;;;;25.95;13.60;;;14.20;99.90;;;13.81;100.00;99664.44;4929805;29;20039;-81
2023/10/12 03:55:58;;;;;;;23.10;13.10;;;14.20;99.90;;;13.85;100.00;99663.94;4920261;29;20036;-80
2023/10/12 03:58:24;;;;;;;24.05;13.32;;;14.20;99.90;;;13.87;100.00;99667.22;4919966;29;20488;-82
2023/10/12 04:01:10;;;;;;;27.50;14.35;;;14.20;99.90;;;13.92;100.00;99657.13;4914546;29;20036;-81
2023/10/12 04:03:37;;;;;;;27.45;15.30;;;14.20;99.90;;;13.94;100.00;99641.25;4924932;29;20087;-83
2023/10/12 04:06:23;;;;;;;29.95;15.75;;;14.20;99.90;;;13.94;100.00;99638.50;4916196;29;20035;-82
2023/10/12 04:08:54;;;;;;;30.38;16.13;;;14.20;99.90;;;13.93;100.00;99617.66;4915569;29;20048;-81
2023/10/12 04:11:47;;;;;;;29.65;15.25;;;14.20;99.90;;;13.96;100.00;99610.81;4918831;29;20391;-81
2023/10/12 04:16:57;;;;;;;27.42;15.00;;;14.10;99.90;;;13.97;100.00;99600.66;4915171;29;20069;-82
2023/10/12 04:19:33;;;;;;;31.33;16.45;;;14.10;99.90;;;13.93;100.00;99601.22;4915994;29;20032;-82
2023/10/12 04:22:25;;;;;;;29.02;16.65;;;14.10;99.90;;;13.95;100.00;99587.25;4920620;29;20032;-82
2023/10/12 04:24:54;;;;;;;34.05;16.88;;;14.10;99.90;;;13.94;100.00;99580.91;4919611;29;20043;-82
2023/10/12 04:29:56;;;;;;;34.03;17.40;;;14.10;99.90;;;13.95;100.00;99582.56;4919616;29;20165;-82
2023/10/12 04:32:51;;;;;;;36.15;17.13;;;14.10;99.90;;;13.95;100.00;99581.75;4919530;29;20063;-81
2023/10/12 04:35:22;;;;;;;37.60;17.48;;;14.10;99.90;;;13.93;100.00;99572.97;4921495;29;20039;-81
2023/10/12 04:37:48;;;;;;;37.42;18.63;;;14.10;99.90;;;13.93;100.00;99572.97;4918045;29;20117;-80
2023/10/12 04:40:36;;;;;;;40.53;19.25;;;14.10;99.90;;;13.98;100.00;99559.28;4915589;29;20115;-81
2023/10/12 04:43:06;;;;;;;39.60;18.55;;;14.10;99.90;;;13.98;100.00;99552.97;4920722;29;20127;-79
2023/10/12 04:48:22;;;;;;;35.13;19.00;;;14.10;99.90;;;13.89;100.00;99567.19;4920172;29;20044;-77
2023/10/12 04:50:59;;;;;;;45.75;20.65;;;14.10;99.90;;;13.89;100.00;99539.78;4920321;29;20048;-78
2023/10/12 04:53:35;;;;;;;38.85;19.80;;;14.10;99.90;;;13.90;100.00;99524.13;4920205;29;20054;-79
2023/10/12 04:56:09;;;;;;;40.20;19.20;;;14.10;99.90;;;13.94;100.00;99528.81;4920458;29;20403;-79
2023/10/12 04:58:36;;;;;;;38.72;19.27;;;14.10;99.90;;;13.95;100.00;99530.47;4918918;29;20047;-84
2023/10/12 05:01:24;;;;;;;42.15;19.73;;;14.00;99.90;;;13.96;100.00;99539.53;4923713;29;20050;-83
2023/10/12 05:04:09;;;;;;;34.40;19.48;;;14.00;99.90;;;13.92;100.00;99550.22;4918276;29;20036;-80
2023/10/12 05:07:20;;;;;;;37.50;18.17;;;14.00;99.90;;;13.93;100.00;99562.00;4918736;29;20075;-81
2023/10/12 05:09:31;;;;;;;35.83;17.63;;;14.00;99.90;;;13.90;100.00;99549.66;4914723;29;20040;-81
2023/10/12 05:11:57;;;;;;;39.03;18.83;;;14.00;99.90;;;13.88;100.00;99546.34;4929813;29;20102;-82
2023/10/12 05:14:24;;;;;;;40.55;19.33;;;14.00;99.90;;;13.91;100.00;99540.34;4911856;29;20143;-80
2023/10/12 05:16:51;;;;;;;35.60;18.70;;;13.90;99.90;;;13.89;100.00;99561.72;4922729;29;20034;-78
2023/10/12 05:19:17;;;;;;;37.45;18.75;;;14.00;99.90;;;13.92;100.00;99571.31;4921722;29;20044;-77
2023/10/12 05:21:43;;;;;;;39.88;20.10;;;13.90;99.90;;;13.94;100.00;99583.66;4921807;29;20039;-78
2023/10/12 05:24:09;;;;;;;40.83;19.80;;;13.90;99.90;;;13.92;100.00;99577.63;4921124;29;20036;-78
2023/10/12 05:26:37;;;;;;;41.92;19.50;;;13.90;99.90;;;13.87;100.00;99579.50;4930625;29;20040;-77
2023/10/12 05:29:34;;;;;;;;;;;14.00;99.90;;;13.92;100.00;99588.59;4923638;29;20495;-78
2023/10/12 05:32:12;;;;;;;41.55;18.65;;;13.90;99.90;;;13.89;100.00;99589.13;4923448;29;19926;-79
2023/10/12 05:37:17;;;;;;;40.38;20.23;;;13.90;99.90;;;13.93;100.00;99583.94;4919647;29;20040;-83
2023/10/12 05:39:46;;;;;;;38.90;19.15;;;13.90;99.90;;;13.83;100.00;99561.94;4923569;29;20123;-79
2023/10/12 05:42:14;;;;;;;39.15;18.67;;;13.90;99.90;;;13.91;100.00;99575.97;4922601;29;20122;-78
2023/10/12 05:44:44;;;;;;;37.33;18.45;;;13.90;99.90;;;13.96;100.00;99594.38;4918090;29;20039;-78
2023/10/12 05:47:13;;;;;;;38.20;18.25;;;13.90;99.90;;;13.89;100.00;99586.38;4922731;29;20044;-79
2023/10/12 05:49:40;;;;;;;35.15;18.45;;;13.90;99.90;;;13.97;100.00;99604.25;4917896;29;20032;-79
2023/10/12 05:52:10;;;;;;;38.33;19.80;;;13.90;99.90;;;13.85;100.00;99589.91;4919064;29;20103;-79
2023/10/12 05:54:38;;;;;;;38.67;20.17;;;14.00;99.90;;;13.86;100.00;99578.69;4920327;29;20047;-79
2023/10/12 05:57:29;;;;;;;38.30;19.13;;;14.00;99.90;;;13.92;100.00;99580.38;4923520;29;20047;-81
2023/10/12 05:59:58;;;;;;;29.20;13.35;;;14.00;99.90;;;13.80;100.00;99604.44;4923645;29;20143;-80
2023/10/12 06:02:26;;;;;;;16.80;7.90;;;14.10;99.90;;;13.34;100.00;99607.59;4921526;29;20236;-80
2023/10/12 06:04:52;;;;;;;13.55;6.15;;;13.80;99.90;;;13.03;100.00;99654.69;4937157;29;20036;-79
2023/10/12 06:07:17;;;;;;;10.27;5.22;;;13.50;99.90;;;13.07;100.00;99665.94;4923123;29;20032;-82
2023/10/12 06:09:43;;;;;;;6.45;3.47;;;13.40;99.90;;;13.03;100.00;99698.50;4915360;29;20047;-79
2023/10/12 06:12:12;;;;;;;8.95;4.38;;;13.40;99.90;;;13.11;100.00;99702.66;4917691;29;20108;-78
2023/10/12 06:14:39;;;;;;;10.25;4.50;;;13.30;99.90;;;13.16;100.00;99737.50;4918023;29;20032;-79
2023/10/12 06:17:06;;;;;;;8.65;4.28;;;13.30;99.90;;;13.14;100.00;99767.06;4921618;29;20044;-80
2023/10/12 06:19:36;;;;;;;8.23;4.20;;;13.30;99.90;;;12.99;100.00;99771.25;4930732;29;20067;-80
2023/10/12 06:22:19;;;;;;;13.98;4.55;;;13.30;99.90;;;13.08;100.00;99756.03;4933967;29;20035;-79
2023/10/12 06:24:49;;;;;;;9.70;3.72;;;13.30;99.90;;;13.13;100.00;99763.50;4923588;29;20090;-77
2023/10/12 06:29:54;;;;;;;55.17;27.75;;;13.30;99.90;;;13.14;100.00;99764.31;4935636;29;20135;-78
2023/10/12 06:32:31;;;;;;;26.55;14.00;;;13.30;99.90;;;13.02;100.00;99789.94;4921681;29;20095;-79
2023/10/12 06:45:56;;;;;;;9.13;2.60;;;13.00;99.90;;;12.75;100.00;99866.47;4921551;29;20385;-79
2023/10/12 06:51:06;;;;;;;8.45;2.40;;;13.00;99.90;;;12.90;100.00;99895.97;4940490;29;20063;-81
2023/10/12 06:53:36;;;;;;;10.05;2.38;;;13.00;99.90;;;12.90;100.00;99912.38;4928805;29;20036;-80
2023/10/12 06:56:24;;;;;;;4.40;2.05;;;13.00;99.90;;;12.88;100.00;99926.34;4932546;29;20137;-81
2023/10/12 07:02:09;;;;;;;10.65;4.60;;;13.00;99.90;;;12.80;100.00;99992.44;4939745;29;20098;-80
2023/10/12 07:04:53;;;;;;;7.70;2.20;;;13.10;99.90;;;12.65;100.00;100023.94;4917678;29;20086;-78
2023/10/12 07:07:30;;;;;;;8.57;1.88;;;13.00;99.90;;;12.66;100.00;100065.81;4920080;29;20063;-79
2023/10/12 07:12:45;;;;;;;7.20;2.90;;;13.00;99.90;;;12.52;100.00;100098.09;4924944;29;20059;-79
2023/10/12 07:15:22;;;;;;;12.80;5.13;;;12.90;99.90;;;12.63;100.00;100085.47;4921222;29;20036;-79
2023/10/12 07:17:50;;;;;;;14.38;2.60;;;12.90;99.90;;;12.56;100.00;100090.25;4920334;29;20046;-79
2023/10/12 07:23:14;;;;;;;8.23;1.75;;;12.80;99.90;;;12.30;100.00;100097.94;4916886;29;20063;-80
2023/10/12 07:25:46;;;;;;;9.60;1.92;;;12.70;99.90;;;12.46;100.00;100105.38;4917135;29;20040;-80
2023/10/12 07:28:18;;;;;;;10.05;2.83;;;12.70;99.90;;;12.46;100.00;100102.63;4939098;29;20431;-80
2023/10/12 07:31:04;;;;;;;9.73;1.70;;;12.70;99.90;;;12.13;100.00;100095.94;4917577;29;20139;-80
2023/10/12 07:33:31;;;;;;;10.05;2.65;;;12.60;99.90;;;12.05;100.00;100078.00;4921057;29;20126;-79
2023/10/12 07:36:08;;;;;;;14.57;2.78;;;12.50;99.90;;;12.10;100.00;100060.88;4922868;29;20036;-81
2023/10/12 07:38:37;;;;;;;9.38;1.85;;;12.50;99.90;;;12.11;100.00;100048.88;4922917;29;20028;-80
2023/10/12 07:41:09;;;;;;;9.25;2.00;;;12.40;99.90;;;12.09;100.00;100040.09;4925393;29;20044;-80
2023/10/12 07:43:38;;;;;;;9.65;2.30;;;12.40;99.90;;;12.02;100.00;100033.94;4922130;29;20519;-80
2023/10/12 07:46:24;;;;;;;22.08;5.10;;;12.40;99.90;;;12.00;100.00;100036.88;4916258;29;20067;-80
2023/10/12 07:48:51;;;;;;;11.68;3.60;;;12.40;99.90;;;12.03;100.00;100032.84;4916432;29;20111;-79
2023/10/12 07:51:29;;;;;;;29.17;13.98;;;12.40;99.90;;;12.09;100.00;100023.69;4919627;29;20032;-80
2023/10/12 07:53:57;;;;;;;11.55;3.10;;;12.40;99.90;;;12.04;100.00;100042.72;4922016;29;20044;-79
2023/10/12 07:56:40;;;;;;;11.70;2.33;;;12.40;99.90;;;12.09;100.00;100048.28;4922962;29;20040;-78
2023/10/12 07:59:14;;;;;;;12.68;2.53;;;12.40;99.90;;;12.11;100.00;100053.53;4923786;29;20032;-78
2023/10/12 08:01:46;;;;;;;10.90;1.88;;;12.40;99.90;;;12.05;100.00;100033.44;4921483;29;20627;-80
2023/10/12 08:04:31;;;;;;;11.35;2.00;;;12.40;99.90;;;12.12;100.00;100038.78;4928462;29;20114;-80
2023/10/12 08:06:57;;;;;;;10.45;2.70;;;12.50;99.90;;;12.29;100.00;100074.41;4916896;29;20047;-79
2023/10/12 08:11:53;;;;;;;13.60;2.42;;;12.50;99.90;;;12.17;100.00;100091.66;4922605;29;20035;-80
2023/10/12 08:14:39;;;;;;;11.60;2.63;;;12.50;99.90;;;12.14;100.00;100124.13;4919531;29;20396;-80
2023/10/12 08:20:44;;;;;;;14.02;3.40;;;12.50;99.90;;;11.98;100.00;100139.34;4916258;29;20032;-79
2023/10/12 08:22:41;;;;;;;12.02;2.08;;;12.40;99.90;;;12.00;100.00;100170.81;4921055;29;20044;-79
2023/10/12 08:25:07;;;;;;;13.77;2.28;;;12.30;99.90;;;11.93;100.00;100175.56;4916228;29;20082;-80
2023/10/12 08:27:52;;;;;;;19.33;2.75;;;12.30;99.90;;;12.13;100.00;100186.19;4917987;29;20187;-80
2023/10/12 08:30:48;;;;;;;20.88;3.40;;;12.30;99.90;;;12.22;100.00;100182.03;4919485;29;20028;-78
2023/10/12 08:33:14;;;;;;;13.85;2.47;;;12.40;99.90;;;12.21;100.00;100196.78;4919618;29;20052;-77
2023/10/12 08:36:23;;;;;;;10.93;2.50;;;12.50;99.90;;;12.29;100.00;100214.69;4921003;29;20040;-80
2023/10/12 08:38:52;;;;;;;12.93;2.17;;;12.60;99.90;;;12.22;100.00;100242.19;4927087;29;20055;-81
2023/10/12 08:43:52;;;;;;;13.95;5.47;;;12.50;99.90;;;12.20;100.00;100248.97;4928910;29;20060;-81
2023/10/12 08:52:18;;;;;;;14.05;2.05;;;12.40;99.90;;;12.07;100.00;100212.59;4927154;29;20036;-80
2023/10/12 08:54:53;;;;;;;12.27;2.10;;;12.50;99.90;;;12.10;100.00;100191.31;4939215;29;20051;-79
2023/10/12 08:57:34;;;;;;;11.73;2.30;;;12.40;99.90;;;12.10;100.00;100170.25;4916761;29;20440;-83
2023/10/12 09:03:00;;;;;;;13.07;2.67;;;12.50;99.90;;;12.21;100.00;100174.91;4917219;29;20056;-82
2023/10/12 09:05:28;;;;;;;14.85;2.63;;;12.60;99.90;;;12.44;100.00;100195.06;4920303;29;20058;-83
2023/10/12 09:10:56;;;;;;;14.70;2.33;;;12.70;99.90;;;12.56;100.00;100273.56;4934613;29;19953;-88
2023/10/12 09:13:45;;;;;;;11.02;2.30;;;12.70;99.90;;;12.63;100.00;100320.78;4925959;29;20050;-81
2023/10/12 09:16:14;;;;;;;13.20;2.65;;;12.80;99.90;;;12.60;100.00;100352.22;4930875;29;20096;-81
2023/10/12 09:18:46;;;;;;;11.52;2.00;;;12.80;99.90;;;12.59;100.00;100377.06;4924557;29;20386;-80
2023/10/12 09:26:15;;;;;;;;;;;13.00;99.90;;;12.67;100.00;100447.88;4928091;29;20038;-83
2023/10/12 09:36:53;;;;;;;11.30;1.88;;;13.00;99.90;;;12.74;100.00;100478.72;4925581;29;20032;-85
2023/10/12 09:39:34;;;;;;;11.75;2.28;;;13.10;99.90;;;13.08;100.00;100480.88;4924777;29;20433;-83
2023/10/12 09:42:14;;;;;;;15.30;2.38;;;13.20;99.90;;;13.28;100.00;100477.81;4945146;29;20051;-83
2023/10/12 09:44:40;;;;;;;14.52;2.30;;;13.40;99.90;;;13.52;100.00;100499.72;4922413;29;20074;-83
2023/10/12 09:47:12;;;;;;;15.73;3.40;;;13.50;99.90;;;13.71;100.00;100518.75;4919190;29;20052;-86
2023/10/12 09:49:54;;;;;;;15.40;2.70;;;13.70;99.90;;;13.74;100.00;100521.84;4926083;29;20067;-84
2023/10/12 09:52:24;;;;;;;13.73;2.70;;;13.80;99.90;;;14.09;100.00;100517.38;4928025;29;20054;-87
2023/10/12 09:55:14;;;;;;;11.93;2.28;;;14.00;99.90;;;13.82;100.00;100531.63;4910803;29;20028;-85
2023/10/12 09:57:49;;;;;;;12.25;2.30;;;14.10;99.90;;;14.05;100.00;100562.78;4923576;29;20504;-82
2023/10/12 10:00:29;;;;;;;10.38;2.00;;;14.30;99.90;;;14.18;100.00;100570.75;4947493;29;20046;-83
2023/10/12 10:02:59;;;;;;;9.57;2.28;;;14.50;99.90;;;14.68;100.00;100584.91;4922297;29;20040;-86
2023/10/12 10:06:10;;;;;;;14.80;2.03;;;14.70;99.90;;;14.90;100.00;100592.47;4925641;29;20123;-86
2023/10/12 10:08:47;;;;;;;13.95;2.45;;;15.00;99.90;;;14.76;100.00;100612.00;4925672;29;20050;-86
2023/10/12 10:11:14;;;;;;;14.70;2.88;;;15.00;99.90;;;14.86;100.00;100610.53;4919166;29;20032;-84
2023/10/12 10:13:47;;;;;;;10.18;2.28;;;15.10;99.90;;;15.21;100.00;100614.97;4925356;29;20123;-84
2023/10/12 10:16:19;;;;;;;10.20;2.08;;;15.20;99.90;;;15.35;100.00;100605.31;4923760;29;20091;-84
2023/10/12 10:21:38;;;;;;;12.88;2.20;;;15.50;99.90;;;15.60;100.00;100628.78;4926755;29;20055;-84
2023/10/12 10:24:19;;;;;;;12.90;2.45;;;15.60;99.90;;;15.66;100.00;100633.31;4925616;29;20032;-84
2023/10/12 10:26:47;;;;;;;11.98;2.25;;;15.60;99.90;;;15.37;100.00;100627.06;4924215;29;20048;-83
2023/10/12 10:29:17;;;;;;;;;;;15.70;99.90;;;15.56;100.00;100641.38;4923486;29;20425;-85
2023/10/12 10:31:50;;;;;;;12.27;2.58;;;15.60;99.90;;;15.52;100.00;100641.06;4937366;29;19919;-84
2023/10/12 10:34:23;;;;;;;13.13;2.63;;;15.60;99.90;;;15.52;100.00;100634.72;4934718;29;20349;-84
2023/10/12 10:36:53;;;;;;;10.52;2.30;;;15.70;99.90;;;15.75;100.00;100639.19;4920740;29;20423;-84
2023/10/12 10:39:28;;;;;;;11.55;2.40;;;15.70;99.90;;;15.71;100.00;100605.03;4934674;29;20036;-82
2023/10/12 10:42:00;;;;;;;8.93;1.92;;;15.80;99.90;;;15.89;100.00;100633.38;4930160;29;20063;-82
2023/10/12 10:44:27;;;;;;;16.90;3.25;;;15.80;99.90;;;15.81;100.00;100626.38;4925223;29;20043;-83
2023/10/12 10:47:06;;;;;;;10.32;2.35;;;15.80;99.90;;;15.57;100.00;100640.31;4928788;29;20491;-82
2023/10/12 10:49:31;;;;;;;12.05;2.35;;;15.80;99.90;;;15.55;100.00;100638.91;4927999;29;20038;-82
2023/10/12 10:54:33;;;;;;;11.02;2.20;;;15.50;99.90;;;15.44;100.00;100632.41;4925129;29;20041;-82
2023/10/12 10:57:04;;;;;;;11.00;2.58;;;15.40;99.90;;;15.39;100.00;100635.88;4924816;29;20118;-82
2023/10/12 10:59:33;;;;;;;9.55;2.13;;;15.30;99.90;;;15.32;100.00;100624.22;4941801;29;20403;-83
2023/10/12 11:01:59;;;;;;;10.82;2.33;;;15.30;99.90;;;15.35;100.00;100626.47;4920445;29;20039;-84
2023/10/12 11:07:04;;;;;;;12.10;2.10;;;15.20;99.90;;;15.23;100.00;100619.13;4924230;29;20047;-84
2023/10/12 11:12:25;;;;;;;10.55;2.03;;;15.30;99.90;;;15.37;100.00;100616.88;4918217;29;20040;-86
2023/10/12 11:14:58;;;;;;;9.68;2.08;;;15.30;99.90;;;15.43;100.00;100615.06;4917832;29;20051;-84
2023/10/12 11:18:05;;;;;;;8.07;2.28;;;15.50;99.90;;;15.48;100.00;100628.88;4939391;29;20073;-85
2023/10/12 11:20:57;;;;;;;9.35;1.88;;;15.50;99.90;;;15.35;100.00;100626.47;4932809;29;20168;-84
2023/10/12 11:23:22;;;;;;;8.02;1.75;;;15.40;99.90;;;15.37;100.00;100619.63;4918050;29;20606;-84
2023/10/12 11:25:48;;;;;;;11.50;2.22;;;15.30;99.90;;;15.10;100.00;100614.78;4926881;29;20032;-83
2023/10/12 11:28:22;;;;;;;13.50;2.58;;;15.20;99.90;;;15.00;100.00;100611.88;4921893;29;20428;-83
2023/10/12 11:30:51;;;;;;;11.07;2.25;;;15.10;99.90;;;14.96;100.00;100616.19;4917437;29;20044;-84
2023/10/12 11:33:27;;;;;;;10.02;2.03;;;15.00;99.90;;;14.95;100.00;100612.59;4932925;29;20040;-85
2023/10/12 11:35:54;;;;;;;11.48;2.30;;;15.00;99.90;;;14.86;100.00;100629.75;4924892;29;20118;-84
2023/10/12 11:38:23;;;;;;;9.05;2.10;;;14.90;99.90;;;14.61;100.00;100620.72;4919607;29;20126;-83
2023/10/12 11:40:58;;;;;;;13.27;2.42;;;14.70;99.90;;;14.40;100.00;100611.28;4929990;29;20044;-84
2023/10/12 11:43:45;;;;;;;12.15;1.98;;;14.40;99.90;;;14.18;100.00;100600.94;4919949;29;20039;-84
2023/10/12 11:46:14;;;;;;;9.60;2.10;;;14.20;99.90;;;14.10;100.00;100590.34;4916567;29;20404;-87
2023/10/12 11:48:40;;;;;;;8.63;2.22;;;14.10;99.90;;;13.91;100.00;100568.56;4928421;29;20388;-87
2023/10/12 11:51:11;;;;;;;11.45;2.53;;;14.00;99.90;;;14.00;100.00;100569.03;4921121;29;20044;-88
2023/10/12 11:53:41;;;;;;;10.77;1.80;;;14.00;99.90;;;13.98;100.00;100570.31;4922000;29;20051;-86
2023/10/12 11:56:14;;;;;;;10.27;2.40;;;14.00;99.90;;;13.93;100.00;100568.34;4921175;29;20043;-86
2023/10/12 11:58:51;;;;;;;11.45;2.40;;;13.90;99.90;;;13.93;100.00;100566.41;4917811;29;20518;-85
2023/10/12 12:01:18;;;;;;;11.95;2.15;;;13.90;99.90;;;13.85;100.00;100572.28;4924402;29;20143;-86
2023/10/12 12:03:45;;;;;;;13.33;1.90;;;13.90;99.90;;;13.69;100.00;100553.81;4918660;29;20038;-87
2023/10/12 12:06:21;;;;;;;13.67;2.63;;;13.80;99.90;;;13.48;100.00;100532.25;4927452;29;20040;-85
2023/10/12 12:08:50;;;;;;;13.55;2.55;;;13.70;99.90;;;13.46;100.00;100517.13;4917225;29;20043;-85
2023/10/12 12:11:21;;;;;;;15.65;2.67;;;13.50;99.90;;;13.47;100.00;100502.34;4924330;29;20071;-85
2023/10/12 12:13:48;;;;;;;12.65;2.85;;;13.50;99.90;;;13.49;100.00;100497.44;4928696;29;20126;-86